Time;durP1;ratioP1;P1;durP2;ratioP2;P2;SDS_P1;SDS_P2;PMS_P1;PMS_P2;Temp;Humidity;BMP_temperature;BMP_pressure;BME280_temperature;BME280_humidity;BME280_pressure;Samples;Min_cycle;Max_cycle;Signal;HPM_P1;HPM_P2
2021/11/23 00:02:24;;;;;;;4.13;2.90;;;3.60;84.00;;;;;;5066522;28;20195;-88
2021/11/23 00:04:49;;;;;;;3.33;3.03;;;3.50;84.70;;;;;;5043357;28;20659;-88
2021/11/23 00:07:15;;;;;;;4.40;2.90;;;3.40;85.00;;;;;;5031920;28;20221;-89
2021/11/23 00:09:41;;;;;;;3.30;3.00;;;3.40;85.80;;;;;;5057199;28;20215;-89
2021/11/23 00:12:07;;;;;;;3.70;3.00;;;3.40;85.40;;;;;;5066157;28;20188;-88
2021/11/23 00:14:33;;;;;;;4.27;3.00;;;3.40;85.60;;;;;;5060517;28;20193;-89
2021/11/23 00:16:59;;;;;;;4.03;3.07;;;3.40;85.90;;;;;;5039326;28;20203;-88
2021/11/23 00:19:25;;;;;;;4.03;2.40;;;3.50;85.30;;;;;;5047487;28;20204;-89
2021/11/23 00:21:51;;;;;;;3.43;2.73;;;3.50;85.60;;;;;;5064233;28;20199;-89
2021/11/23 00:24:17;;;;;;;3.13;2.70;;;3.40;84.70;;;;;;5028239;28;20264;-89
2021/11/23 00:26:42;;;;;;;2.63;2.43;;;3.30;84.50;;;;;;5065716;28;20262;-89
2021/11/23 00:29:08;;;;;;;2.63;2.30;;;3.20;84.80;;;;;;5066460;28;20287;-88
2021/11/23 00:31:34;;;;;;;2.90;2.70;;;3.20;85.70;;;;;;5071888;28;20249;-90
2021/11/23 00:34:00;;;;;;;3.07;2.73;;;3.20;84.80;;;;;;5068833;28;20188;-89
2021/11/23 00:36:26;;;;;;;2.83;2.50;;;3.20;85.50;;;;;;5062258;28;20195;-88
2021/11/23 00:38:52;;;;;;;3.00;2.60;;;3.20;85.70;;;;;;5066790;28;20259;-88
2021/11/23 00:41:18;;;;;;;4.10;2.80;;;3.20;85.40;;;;;;5062962;28;20195;-89
2021/11/23 00:43:46;;;;;;;3.20;2.90;;;3.20;85.00;;;;;;5038875;28;20193;-89
2021/11/23 00:46:12;;;;;;;3.13;2.70;;;3.10;85.30;;;;;;5056328;28;20212;-89
2021/11/23 00:48:38;;;;;;;2.97;2.60;;;3.10;85.60;;;;;;5043716;28;20717;-89
2021/11/23 00:51:05;;;;;;;4.23;2.93;;;3.10;85.70;;;;;;5032374;28;20204;-88
2021/11/23 00:53:33;;;;;;;2.97;2.60;;;3.00;85.70;;;;;;5029196;28;20202;-88
2021/11/23 00:56:03;;;;;;;3.60;2.67;;;3.00;86.00;;;;;;5058758;28;20190;-88
2021/11/23 00:58:29;;;;;;;3.57;2.67;;;2.90;86.30;;;;;;5048978;28;20417;-88
2021/11/23 01:00:55;;;;;;;2.53;2.33;;;2.90;85.70;;;;;;5060300;28;20717;-88
2021/11/23 01:03:20;;;;;;;3.43;2.73;;;2.90;85.20;;;;;;5042797;28;20200;-88
2021/11/23 01:05:46;;;;;;;2.93;2.43;;;2.80;85.70;;;;;;5064612;28;20242;-88
2021/11/23 01:08:17;;;;;;;2.80;2.53;;;2.80;85.80;;;;;;5070198;28;20231;-88
2021/11/23 01:10:43;;;;;;;4.03;3.03;;;2.80;86.50;;;;;;5069572;28;20207;-88
2021/11/23 01:13:10;;;;;;;2.90;2.60;;;2.80;87.10;;;;;;5064195;28;20200;-88
2021/11/23 01:15:37;;;;;;;3.30;2.87;;;2.90;86.30;;;;;;5071476;28;20178;-88
2021/11/23 01:18:04;;;;;;;3.30;2.53;;;2.90;85.70;;;;;;5039828;28;20236;-88
2021/11/23 01:20:30;;;;;;;3.77;2.47;;;2.90;85.50;;;;;;5057993;28;20226;-88
2021/11/23 01:22:57;;;;;;;3.00;2.70;;;2.80;86.10;;;;;;5072172;28;20180;-88
2021/11/23 01:25:23;;;;;;;2.97;2.60;;;2.80;87.90;;;;;;5080473;28;20212;-88
2021/11/23 01:27:50;;;;;;;4.40;2.80;;;3.00;86.80;;;;;;5049620;28;20191;-88
2021/11/23 01:30:17;;;;;;;4.13;2.60;;;3.00;86.50;;;;;;5047554;28;20204;-88
2021/11/23 01:32:43;;;;;;;5.93;2.77;;;3.00;86.80;;;;;;5039936;28;20280;-88
2021/11/23 01:35:14;;;;;;;2.93;2.63;;;3.00;87.30;;;;;;5061660;28;20230;-88
2021/11/23 01:37:43;;;;;;;3.33;3.03;;;3.00;85.90;;;;;;5057270;28;20177;-88
2021/11/23 01:40:10;;;;;;;3.20;2.80;;;2.90;85.60;;;;;;5051124;28;20227;-88
2021/11/23 01:42:36;;;;;;;3.77;2.60;;;2.90;86.30;;;;;;5062463;28;20223;-87
2021/11/23 01:45:04;;;;;;;3.00;2.60;;;2.80;86.70;;;;;;5056633;28;20184;-88
2021/11/23 01:47:29;;;;;;;2.97;2.70;;;2.80;86.20;;;;;;5038673;28;20192;-88
2021/11/23 01:49:55;;;;;;;3.17;2.90;;;2.80;86.20;;;;;;5057403;28;20479;-87
2021/11/23 01:52:22;;;;;;;3.00;2.67;;;2.70;86.40;;;;;;5060265;28;20651;-88
2021/11/23 01:54:48;;;;;;;3.70;3.10;;;2.60;87.30;;;;;;5065484;28;20199;-88
2021/11/23 01:57:16;;;;;;;3.73;2.87;;;2.60;87.50;;;;;;5052348;28;20196;-87
2021/11/23 01:59:42;;;;;;;3.30;2.33;;;2.50;87.70;;;;;;5060214;28;20210;-87
2021/11/23 02:02:08;;;;;;;3.30;2.73;;;2.50;87.40;;;;;;5042855;28;20215;-87
2021/11/23 02:04:33;;;;;;;2.67;2.47;;;2.50;88.10;;;;;;5047665;28;20306;-88
2021/11/23 02:06:59;;;;;;;2.77;2.57;;;2.50;88.00;;;;;;5025661;28;20222;-88
2021/11/23 02:09:26;;;;;;;4.37;3.00;;;2.30;88.70;;;;;;5065115;28;20214;-88
2021/11/23 02:11:54;;;;;;;2.87;2.67;;;2.40;89.20;;;;;;5062003;28;20192;-88
2021/11/23 02:14:20;;;;;;;4.00;2.93;;;2.40;89.60;;;;;;5060926;28;20188;-88
2021/11/23 02:16:46;;;;;;;3.90;3.23;;;2.40;88.50;;;;;;5055122;28;20238;-88
2021/11/23 02:19:12;;;;;;;4.53;3.33;;;2.30;88.70;;;;;;5044084;28;20211;-88
2021/11/23 02:21:38;;;;;;;2.70;2.50;;;2.30;89.40;;;;;;5050722;28;20235;-88
2021/11/23 02:24:04;;;;;;;3.33;3.00;;;2.40;90.40;;;;;;5059094;28;20265;-88
2021/11/23 02:26:30;;;;;;;3.87;3.07;;;2.40;88.40;;;;;;5041959;28;20209;-88
2021/11/23 02:28:56;;;;;;;2.63;2.43;;;2.40;89.30;;;;;;5064496;28;20195;-88
2021/11/23 02:31:22;;;;;;;3.30;2.93;;;2.40;88.70;;;;;;5067006;28;20195;-88
2021/11/23 02:33:49;;;;;;;4.23;2.90;;;2.40;89.20;;;;;;5061662;28;20211;-88
2021/11/23 02:36:15;;;;;;;3.27;2.97;;;2.40;88.60;;;;;;5062510;28;20214;-88
2021/11/23 02:38:41;;;;;;;5.90;3.00;;;2.40;88.40;;;;;;5035755;28;20669;-88
2021/11/23 02:41:10;;;;;;;3.07;2.77;;;2.40;89.00;;;;;;5041407;28;20257;-88
2021/11/23 02:43:37;;;;;;;3.30;2.90;;;2.50;90.60;;;;;;5059571;28;20201;-88
2021/11/23 02:46:03;;;;;;;3.73;3.33;;;2.50;88.80;;;;;;5066155;28;20566;-88
2021/11/23 02:48:29;;;;;;;4.17;2.97;;;2.60;88.30;;;;;;5060669;28;20671;-88
2021/11/23 02:53:27;;;;;;;3.57;3.00;;;2.60;87.70;;;;;;5063811;28;20188;-88
2021/11/23 02:55:53;;;;;;;4.63;3.17;;;2.50;88.00;;;;;;5062382;28;20188;-88
2021/11/23 02:58:19;;;;;;;3.53;3.23;;;2.40;88.40;;;;;;5058682;28;20201;-88
2021/11/23 03:00:45;;;;;;;4.97;3.10;;;2.30;88.60;;;;;;5064808;28;20720;-88
2021/11/23 03:03:11;;;;;;;3.83;3.43;;;2.30;88.50;;;;;;5027250;28;20212;-88
2021/11/23 03:05:37;;;;;;;4.97;3.47;;;2.30;88.60;;;;;;5038537;28;20209;-89
2021/11/23 03:08:03;;;;;;;3.97;3.57;;;2.20;89.00;;;;;;5059030;28;20298;-88
2021/11/23 03:10:30;;;;;;;5.00;3.10;;;2.10;89.80;;;;;;5068073;28;20208;-88
2021/11/23 03:12:57;;;;;;;3.90;3.33;;;2.00;90.00;;;;;;5057504;28;20193;-88
2021/11/23 03:15:25;;;;;;;3.13;2.83;;;2.00;90.70;;;;;;5057181;28;20192;-88
2021/11/23 03:17:51;;;;;;;3.60;3.30;;;1.90;90.80;;;;;;5062627;28;20276;-88
2021/11/23 03:20:19;;;;;;;5.37;3.50;;;1.80;90.80;;;;;;5061730;28;20196;-89
2021/11/23 03:22:46;;;;;;;3.13;2.83;;;1.80;91.50;;;;;;5062465;28;20545;-89
2021/11/23 03:25:13;;;;;;;3.67;3.17;;;1.80;91.20;;;;;;5060500;28;20206;-88
2021/11/23 03:27:38;;;;;;;4.03;3.20;;;1.80;91.30;;;;;;5070545;28;20189;-88
2021/11/23 03:30:07;;;;;;;3.40;3.03;;;1.80;91.40;;;;;;5062768;28;20564;-88
2021/11/23 03:32:33;;;;;;;4.30;3.03;;;1.80;91.60;;;;;;5061493;28;20197;-88
2021/11/23 03:34:59;;;;;;;3.37;3.00;;;1.70;91.80;;;;;;5046817;28;20188;-88
2021/11/23 03:37:26;;;;;;;4.27;2.90;;;1.70;91.50;;;;;;5043826;28;20193;-87
2021/11/23 03:39:54;;;;;;;3.17;2.87;;;1.70;92.20;;;;;;5080775;28;20220;-88
2021/11/23 03:42:20;;;;;;;3.27;2.97;;;1.80;92.20;;;;;;5070475;28;20188;-88
2021/11/23 03:44:46;;;;;;;3.83;3.37;;;1.80;91.70;;;;;;5055765;28;20537;-88
2021/11/23 03:47:15;;;;;;;3.77;3.17;;;1.70;91.00;;;;;;5038836;28;20298;-89
2021/11/23 03:49:43;;;;;;;3.60;3.30;;;1.80;92.20;;;;;;5040925;28;20271;-88
2021/11/23 03:52:09;;;;;;;5.00;3.00;;;1.80;90.50;;;;;;5057408;28;20199;-89
2021/11/23 03:54:34;;;;;;;5.30;3.13;;;1.90;91.90;;;;;;5074016;28;20223;-88
2021/11/23 03:57:00;;;;;;;4.43;3.17;;;1.90;90.70;;;;;;5068756;28;20196;-88
2021/11/23 03:59:26;;;;;;;5.93;3.17;;;1.90;91.30;;;;;;5060804;28;20216;-88
2021/11/23 04:01:52;;;;;;;3.83;2.90;;;1.90;91.10;;;;;;5062522;28;20177;-87
2021/11/23 04:04:18;;;;;;;3.53;3.23;;;1.90;90.50;;;;;;5071181;28;20192;-87
2021/11/23 04:06:44;;;;;;;4.40;2.93;;;1.80;90.40;;;;;;5071845;28;20589;-88
2021/11/23 04:09:10;;;;;;;3.60;2.90;;;1.90;92.30;;;;;;5056009;28;20211;-89
2021/11/23 04:11:35;;;;;;;3.37;3.00;;;1.80;91.10;;;;;;5058748;28;20188;-88
2021/11/23 04:14:02;;;;;;;3.37;2.97;;;1.90;91.20;;;;;;5055998;28;20256;-88
2021/11/23 04:16:28;;;;;;;3.33;3.00;;;1.90;90.60;;;;;;5064779;28;20191;-88
2021/11/23 04:18:54;;;;;;;3.07;2.60;;;1.90;90.50;;;;;;5050725;28;20203;-89
2021/11/23 04:21:20;;;;;;;3.20;2.90;;;1.90;90.20;;;;;;5056822;28;20234;-88
2021/11/23 04:23:46;;;;;;;3.87;2.80;;;1.90;90.40;;;;;;5070217;28;20198;-88
2021/11/23 04:26:12;;;;;;;3.10;2.80;;;1.80;91.10;;;;;;5033767;28;20212;-88
2021/11/23 04:28:38;;;;;;;2.63;2.43;;;1.80;91.10;;;;;;5059897;28;20196;-86
2021/11/23 04:31:04;;;;;;;3.40;3.00;;;1.80;91.10;;;;;;5060301;28;20212;-89
2021/11/23 04:33:30;;;;;;;4.37;2.70;;;1.80;91.50;;;;;;5066965;28;20190;-88
2021/11/23 04:35:56;;;;;;;3.33;2.83;;;1.70;91.10;;;;;;5044066;28;20215;-88
2021/11/23 04:38:21;;;;;;;3.00;2.70;;;1.70;91.70;;;;;;5059231;28;20314;-89
2021/11/23 04:40:47;;;;;;;3.07;2.77;;;1.70;91.30;;;;;;5059830;28;20267;-88
2021/11/23 04:43:13;;;;;;;3.07;2.77;;;1.70;91.00;;;;;;5038831;28;20662;-88
2021/11/23 04:45:39;;;;;;;3.70;3.23;;;1.60;91.00;;;;;;5057571;28;20212;-88
2021/11/23 04:48:05;;;;;;;3.80;2.97;;;1.60;91.10;;;;;;5059867;28;20189;-88
2021/11/23 04:50:32;;;;;;;5.10;2.70;;;1.40;92.30;;;;;;5054239;28;20214;-87
2021/11/23 04:52:57;;;;;;;3.30;2.77;;;1.40;92.50;;;;;;5054478;28;20185;-87
2021/11/23 04:55:24;;;;;;;3.97;2.70;;;1.30;92.80;;;;;;5060999;28;20258;-87
2021/11/23 04:57:50;;;;;;;4.70;2.87;;;1.40;93.30;;;;;;5058357;28;20546;-87
2021/11/23 05:00:18;;;;;;;5.83;3.13;;;1.40;93.40;;;;;;5039935;28;20208;-87
2021/11/23 05:02:44;;;;;;;3.30;2.80;;;1.30;93.10;;;;;;5049630;28;20203;-88
2021/11/23 05:05:12;;;;;;;3.47;2.77;;;1.30;93.40;;;;;;5051891;28;20180;-88
2021/11/23 05:07:38;;;;;;;4.83;3.20;;;1.30;93.40;;;;;;5036035;28;20192;-88
2021/11/23 05:10:06;;;;;;;4.63;3.47;;;1.30;93.80;;;;;;5060589;28;20223;-88
2021/11/23 05:12:32;;;;;;;3.27;2.97;;;1.30;93.60;;;;;;5056233;28;20257;-88
2021/11/23 05:14:58;;;;;;;9.60;3.87;;;1.30;93.40;;;;;;5064584;28;20541;-88
2021/11/23 05:17:23;;;;;;;4.50;4.10;;;1.30;93.50;;;;;;5056075;28;20193;-88
2021/11/23 05:19:49;;;;;;;3.63;3.33;;;1.20;94.00;;;;;;5060206;28;20744;-88
2021/11/23 05:22:15;;;;;;;5.63;5.10;;;1.20;93.50;;;;;;5063043;28;20196;-88
2021/11/23 05:24:41;;;;;;;4.40;4.00;;;1.20;94.00;;;;;;5038941;28;20204;-88
2021/11/23 05:27:07;;;;;;;4.93;4.43;;;1.10;93.90;;;;;;5062037;28;20212;-86
2021/11/23 05:29:33;;;;;;;4.33;3.93;;;1.10;94.60;;;;;;5038046;28;20215;-87
2021/11/23 05:31:59;;;;;;;4.03;3.63;;;1.10;94.50;;;;;;5049643;28;20195;-87
2021/11/23 05:34:25;;;;;;;3.77;3.43;;;1.20;93.90;;;;;;5034688;28;20663;-87
2021/11/23 05:36:50;;;;;;;5.40;4.03;;;1.10;94.20;;;;;;5054724;28;20192;-87
2021/11/23 05:39:16;;;;;;;4.40;3.97;;;1.10;94.50;;;;;;5039900;28;20219;-87
2021/11/23 05:41:42;;;;;;;4.93;4.50;;;1.00;94.40;;;;;;5057217;28;20459;-87
2021/11/23 05:44:09;;;;;;;5.10;4.47;;;1.00;94.50;;;;;;5031359;28;20678;-87
2021/11/23 05:46:36;;;;;;;4.67;3.90;;;1.00;94.70;;;;;;5061550;28;20215;-87
2021/11/23 05:49:02;;;;;;;6.23;5.73;;;1.00;94.80;;;;;;5020424;28;20629;-87
2021/11/23 05:51:28;;;;;;;5.37;3.73;;;1.00;94.20;;;;;;5050706;28;20195;-87
2021/11/23 05:53:54;;;;;;;4.77;3.67;;;1.00;94.60;;;;;;5058302;28;20635;-86
2021/11/23 05:56:21;;;;;;;4.80;3.80;;;1.00;94.50;;;;;;5060898;28;20196;-87
2021/11/23 05:58:47;;;;;;;7.40;5.40;;;0.90;94.30;;;;;;5056788;28;20202;-87
2021/11/23 06:01:13;;;;;;;5.73;4.37;;;0.90;94.60;;;;;;5059505;28;20487;-86
2021/11/23 06:03:38;;;;;;;8.13;4.30;;;0.90;94.90;;;;;;5063489;28;20614;-87
2021/11/23 06:06:04;;;;;;;4.43;3.73;;;1.00;95.00;;;;;;5058948;28;20223;-86
2021/11/23 06:08:30;;;;;;;4.90;4.40;;;1.10;94.30;;;;;;5037587;28;20189;-87
2021/11/23 06:10:56;;;;;;;5.10;4.13;;;1.10;94.00;;;;;;5055488;28;20208;-86
2021/11/23 06:13:22;;;;;;;3.70;3.33;;;1.00;93.60;;;;;;5063741;28;20198;-86
2021/11/23 06:15:48;;;;;;;5.73;3.87;;;1.00;94.00;;;;;;5032230;28;20193;-87
2021/11/23 06:18:15;;;;;;;3.83;3.43;;;1.10;95.10;;;;;;5055966;28;20662;-87
2021/11/23 06:20:56;;;;;;;4.20;3.53;;;1.00;93.70;;;;;;5055895;28;20223;-87
2021/11/23 06:23:24;;;;;;;4.77;3.70;;;1.00;93.90;;;;;;5039904;28;20197;-87
2021/11/23 06:25:52;;;;;;;4.13;3.77;;;0.90;93.70;;;;;;5055007;28;20576;-86
2021/11/23 06:28:19;;;;;;;4.63;4.23;;;0.90;94.30;;;;;;5063134;28;20179;-86
2021/11/23 06:30:45;;;;;;;5.40;3.87;;;0.90;94.40;;;;;;5052604;28;20233;-86
2021/11/23 06:33:12;;;;;;;4.47;3.63;;;0.90;94.60;;;;;;5057302;28;20218;-86
2021/11/23 06:35:38;;;;;;;4.40;3.70;;;0.90;95.30;;;;;;5074028;28;20186;-86
2021/11/23 06:38:05;;;;;;;5.43;3.97;;;0.90;94.20;;;;;;5077985;28;20193;-86
2021/11/23 06:40:32;;;;;;;6.17;4.37;;;0.90;94.90;;;;;;5057171;28;20231;-86
2021/11/23 06:42:57;;;;;;;5.07;4.17;;;0.90;95.00;;;;;;5065087;28;20205;-86
2021/11/23 06:45:23;;;;;;;4.67;3.70;;;0.80;94.30;;;;;;5093578;28;20226;-86
2021/11/23 06:47:50;;;;;;;4.23;3.83;;;0.90;95.20;;;;;;5076112;28;20227;-86
2021/11/23 06:50:16;;;;;;;3.97;3.53;;;1.00;95.30;;;;;;5063541;28;20222;-86
2021/11/23 06:52:42;;;;;;;4.37;3.97;;;1.00;94.40;;;;;;5044588;28;20268;-86
2021/11/23 06:55:09;;;;;;;6.90;4.80;;;1.00;95.00;;;;;;5052089;28;20208;-87
2021/11/23 06:57:35;;;;;;;5.90;5.13;;;1.10;94.10;;;;;;5029664;28;20200;-86
2021/11/23 07:00:01;;;;;;;5.10;4.57;;;1.10;93.70;;;;;;5053662;28;20215;-87
2021/11/23 07:02:26;;;;;;;4.50;4.10;;;1.10;94.10;;;;;;5041409;28;20192;-87
2021/11/23 07:04:52;;;;;;;4.83;4.33;;;1.20;94.10;;;;;;5049418;28;20246;-86
2021/11/23 07:07:18;;;;;;;5.40;4.90;;;1.20;93.10;;;;;;5052011;28;20278;-87
2021/11/23 07:09:44;;;;;;;5.10;4.23;;;1.30;93.80;;;;;;5057510;28;20228;-86
2021/11/23 07:12:11;;;;;;;8.20;7.40;;;1.30;93.40;;;;;;5059029;28;20188;-87
2021/11/23 07:14:38;;;;;;;6.27;5.67;;;1.30;92.30;;;;;;5057653;28;20188;-86
2021/11/23 07:17:04;;;;;;;6.40;5.50;;;1.40;92.40;;;;;;5058300;28;20320;-87
2021/11/23 07:19:29;;;;;;;9.70;5.63;;;1.30;93.40;;;;;;5042345;28;20250;-87
2021/11/23 07:21:55;;;;;;;5.27;4.77;;;1.40;92.70;;;;;;5063258;28;20441;-87
2021/11/23 07:24:21;;;;;;;6.70;4.70;;;1.30;91.80;;;;;;5057321;28;20216;-86
2021/11/23 07:26:47;;;;;;;5.80;4.77;;;1.30;92.50;;;;;;5053026;28;20243;-86
2021/11/23 07:29:13;;;;;;;5.33;4.40;;;1.30;92.10;;;;;;5034078;28;20231;-87
2021/11/23 07:31:39;;;;;;;5.03;4.53;;;1.30;92.50;;;;;;5051014;28;20250;-86
2021/11/23 07:34:06;;;;;;;5.60;4.93;;;1.40;92.90;;;;;;5049370;28;20189;-86
2021/11/23 07:36:31;;;;;;;5.10;4.50;;;1.30;92.70;;;;;;5056569;28;20191;-86
2021/11/23 07:39:01;;;;;;;5.43;4.57;;;1.30;93.00;;;;;;5054679;28;20192;-86
2021/11/23 07:41:28;;;;;;;5.53;5.03;;;1.30;93.70;;;;;;5051694;28;20203;-86
2021/11/23 07:43:55;;;;;;;6.33;4.93;;;1.40;93.40;;;;;;5056198;28;20319;-86
2021/11/23 07:46:21;;;;;;;6.57;5.33;;;1.40;92.70;;;;;;5061397;28;20215;-86
2021/11/23 07:48:47;;;;;;;6.20;4.67;;;1.40;92.20;;;;;;5051478;28;20547;-87
2021/11/23 07:51:14;;;;;;;6.23;4.77;;;1.40;91.50;;;;;;5035644;28;20242;-86
2021/11/23 07:53:40;;;;;;;6.17;5.37;;;1.40;93.20;;;;;;5045190;28;20558;-87
2021/11/23 07:56:05;;;;;;;6.23;4.40;;;1.30;92.60;;;;;;5048695;28;20268;-87
2021/11/23 07:58:31;;;;;;;6.47;5.20;;;1.40;92.80;;;;;;5053295;28;20223;-87
2021/11/23 08:00:57;;;;;;;5.83;5.20;;;1.40;92.20;;;;;;5051756;28;20676;-86
2021/11/23 08:03:23;;;;;;;5.63;4.90;;;1.40;92.50;;;;;;5049773;28;20200;-86
2021/11/23 08:05:49;;;;;;;8.40;5.40;;;1.50;92.30;;;;;;5045228;28;20262;-87
2021/11/23 08:08:15;;;;;;;7.07;5.10;;;1.50;91.60;;;;;;5047808;28;20188;-87
2021/11/23 08:10:41;;;;;;;7.03;5.70;;;1.50;92.00;;;;;;5058025;28;20299;-87
2021/11/23 08:13:08;;;;;;;5.87;5.37;;;1.50;92.60;;;;;;5051511;28;20420;-86
2021/11/23 08:15:36;;;;;;;5.77;5.20;;;1.60;91.80;;;;;;5061504;28;20189;-87
2021/11/23 08:18:03;;;;;;;8.53;5.67;;;1.60;91.70;;;;;;5059011;28;20271;-87
2021/11/23 08:20:29;;;;;;;10.33;6.37;;;1.60;91.40;;;;;;5052339;28;20205;-87
2021/11/23 08:22:55;;;;;;;5.63;5.13;;;1.60;91.60;;;;;;5029921;28;20199;-87
2021/11/23 08:25:21;;;;;;;5.70;5.20;;;1.60;91.40;;;;;;5046924;28;20193;-87
2021/11/23 08:27:46;;;;;;;7.07;6.30;;;1.60;91.10;;;;;;5064324;28;20199;-87
2021/11/23 08:30:13;;;;;;;6.17;4.67;;;1.60;91.00;;;;;;5055868;28;20254;-87
2021/11/23 08:32:39;;;;;;;6.50;5.20;;;1.60;91.60;;;;;;5055383;28;20242;-88
2021/11/23 08:35:05;;;;;;;5.90;5.40;;;1.60;91.40;;;;;;5061167;28;20204;-87
2021/11/23 08:37:31;;;;;;;5.80;5.20;;;1.70;91.10;;;;;;5049553;28;20265;-87
2021/11/23 08:39:58;;;;;;;9.53;6.50;;;1.70;91.20;;;;;;5056049;28;20220;-87
2021/11/23 08:42:25;;;;;;;7.50;5.60;;;1.70;91.20;;;;;;5028373;28;20273;-87
2021/11/23 08:44:54;;;;;;;6.53;5.23;;;1.90;92.20;;;;;;5057235;28;20210;-86
2021/11/23 08:47:21;;;;;;;8.23;5.70;;;1.90;90.70;;;;;;5059338;28;20216;-87
2021/11/23 08:49:48;;;;;;;7.60;6.00;;;2.00;90.60;;;;;;5051342;28;20266;-87
2021/11/23 08:52:15;;;;;;;7.13;5.57;;;2.00;90.20;;;;;;5054805;28;20199;-87
2021/11/23 08:54:41;;;;;;;6.30;5.70;;;2.10;89.50;;;;;;5058440;28;20388;-87
2021/11/23 08:57:08;;;;;;;7.77;5.70;;;2.10;89.20;;;;;;5052746;28;20582;-87
2021/11/23 08:59:41;;;;;;;6.73;6.00;;;2.20;89.10;;;;;;5050658;28;20239;-87
2021/11/23 09:02:07;;;;;;;7.07;6.37;;;2.20;89.20;;;;;;5048047;28;20253;-87
2021/11/23 09:04:36;;;;;;;9.80;6.93;;;2.30;88.50;;;;;;5055879;28;20290;-87
2021/11/23 09:07:04;;;;;;;6.97;6.27;;;2.40;87.90;;;;;;5052301;28;20211;-87
2021/11/23 09:09:31;;;;;;;8.80;6.60;;;2.40;87.10;;;;;;5058827;28;20207;-87
2021/11/23 09:12:01;;;;;;;8.57;6.00;;;2.50;87.70;;;;;;5031876;28;20202;-87
2021/11/23 09:14:31;;;;;;;8.90;6.10;;;2.60;87.10;;;;;;5051754;28;20188;-87
2021/11/23 09:16:58;;;;;;;6.60;5.87;;;2.60;87.00;;;;;;5073111;28;20192;-88
2021/11/23 09:19:24;;;;;;;6.93;5.67;;;2.70;87.70;;;;;;5064502;28;20290;-88
2021/11/23 09:21:50;;;;;;;6.63;5.83;;;2.80;86.50;;;;;;5050891;28;20195;-88
2021/11/23 09:24:16;;;;;;;7.40;6.70;;;2.90;85.70;;;;;;5065424;28;20199;-88
2021/11/23 09:26:44;;;;;;;8.67;6.40;;;3.00;86.10;;;;;;5081543;28;20195;-88
2021/11/23 09:29:10;;;;;;;9.60;7.13;;;3.10;85.70;;;;;;5071341;28;20268;-87
2021/11/23 09:31:35;;;;;;;8.20;7.40;;;3.30;85.40;;;;;;5050751;28;20227;-88
2021/11/23 09:34:02;;;;;;;7.30;6.47;;;3.40;84.30;;;;;;5061045;28;20265;-88
2021/11/23 09:36:27;;;;;;;8.57;7.13;;;3.50;82.50;;;;;;5061494;28;20191;-88
2021/11/23 09:38:53;;;;;;;8.30;7.47;;;3.50;82.30;;;;;;5055557;28;20207;-88
2021/11/23 09:41:19;;;;;;;7.27;6.57;;;3.60;81.70;;;;;;5064573;28;20256;-88
2021/11/23 09:43:45;;;;;;;7.83;7.10;;;3.60;81.30;;;;;;5043790;28;20192;-88
2021/11/23 09:46:11;;;;;;;8.13;6.30;;;3.60;81.10;;;;;;5031500;28;20217;-87
2021/11/23 09:48:44;;;;;;;9.83;7.87;;;3.70;81.40;;;;;;5055595;28;20237;-88
2021/11/23 09:51:23;;;;;;;7.97;7.13;;;4.00;80.30;;;;;;5059510;28;20682;-87
2021/11/23 09:53:50;;;;;;;8.03;7.33;;;4.10;79.70;;;;;;5064314;28;20191;-88
2021/11/23 09:56:15;;;;;;;8.53;7.00;;;4.20;78.10;;;;;;5055884;28;20556;-88
2021/11/23 09:58:41;;;;;;;15.47;13.70;;;4.20;78.20;;;;;;5054978;28;20242;-87
2021/11/23 10:01:10;;;;;;;7.67;6.70;;;4.40;79.10;;;;;;5081856;28;20212;-89
2021/11/23 10:03:37;;;;;;;7.83;7.10;;;4.60;77.90;;;;;;5084948;28;20187;-88
2021/11/23 10:06:24;;;;;;;7.43;6.43;;;4.70;76.20;;;;;;5061996;28;20211;-87
2021/11/23 10:08:53;;;;;;;6.53;5.87;;;4.60;75.00;;;;;;5051777;28;20196;-87
2021/11/23 10:11:39;;;;;;;8.23;6.20;;;4.70;77.30;;;;;;5058934;28;20193;-88
2021/11/23 10:14:08;;;;;;;7.87;6.63;;;4.90;76.00;;;;;;5051858;28;20197;-88
2021/11/23 10:16:40;;;;;;;8.10;7.30;;;5.20;75.30;;;;;;5060030;28;20575;-87
2021/11/23 10:19:09;;;;;;;8.00;6.83;;;5.20;74.30;;;;;;5048080;28;20203;-87
2021/11/23 10:21:35;;;;;;;11.27;7.23;;;5.20;74.40;;;;;;5069589;28;20176;-88
2021/11/23 10:24:00;;;;;;;7.77;6.97;;;5.30;74.70;;;;;;5059391;28;20191;-88
2021/11/23 10:26:31;;;;;;;7.00;6.40;;;5.40;74.60;;;;;;5052761;28;20216;-88
2021/11/23 10:29:00;;;;;;;7.87;5.60;;;5.60;73.10;;;;;;5045226;28;20227;-88
2021/11/23 10:31:40;;;;;;;9.03;6.87;;;5.60;72.50;;;;;;5054000;28;20188;-87
2021/11/23 10:34:10;;;;;;;9.13;6.40;;;5.80;72.60;;;;;;5056043;28;20308;-89
2021/11/23 10:36:38;;;;;;;11.73;6.50;;;5.90;70.60;;;;;;5072739;28;20692;-86
2021/11/23 10:39:09;;;;;;;11.57;7.23;;;5.90;71.30;;;;;;5071560;28;20192;-88
2021/11/23 10:41:35;;;;;;;14.67;8.03;;;6.10;70.30;;;;;;5055331;28;20230;-90
2021/11/23 10:44:02;;;;;;;8.63;6.40;;;6.20;69.60;;;;;;5024348;28;20208;-91
2021/11/23 10:46:31;;;;;;;7.43;6.07;;;6.40;68.30;;;;;;5056122;28;20371;-91
2021/11/23 10:49:02;;;;;;;6.93;6.00;;;6.50;67.60;;;;;;5047631;28;20562;-91
2021/11/23 10:51:39;;;;;;;6.63;5.77;;;6.70;67.70;;;;;;5048809;28;20548;-92
2021/11/23 10:54:13;;;;;;;7.00;6.30;;;6.90;66.30;;;;;;5046807;28;20697;-91
2021/11/23 10:56:59;;;;;;;6.50;5.90;;;6.90;65.30;;;;;;5041809;28;20295;-90
2021/11/23 10:59:25;;;;;;;6.63;5.53;;;6.80;64.60;;;;;;5045972;28;20230;-90
2021/11/23 11:01:51;;;;;;;19.63;7.20;;;6.90;66.20;;;;;;5043411;28;20200;-91
2021/11/23 11:04:18;;;;;;;17.37;6.13;;;7.00;65.50;;;;;;5047399;28;20177;-93
2021/11/23 11:06:44;;;;;;;8.53;6.03;;;7.20;64.60;;;;;;5054509;28;20254;-90
2021/11/23 11:09:10;;;;;;;5.70;5.20;;;7.20;63.90;;;;;;5033703;28;20702;-87
2021/11/23 11:11:37;;;;;;;6.60;6.00;;;7.30;63.70;;;;;;5041308;28;20203;-89
2021/11/23 11:14:06;;;;;;;6.10;5.50;;;7.20;63.70;;;;;;5063656;28;20191;-89
2021/11/23 11:16:35;;;;;;;6.30;5.70;;;7.40;62.90;;;;;;5040085;28;20206;-89
2021/11/23 11:19:05;;;;;;;6.33;5.50;;;7.40;62.70;;;;;;5036470;28;20198;-88
2021/11/23 11:21:36;;;;;;;5.87;5.37;;;7.40;62.30;;;;;;5065827;28;20685;-89
2021/11/23 11:24:42;;;;;;;11.33;5.77;;;7.40;62.20;;;;;;5060268;28;20278;-88
2021/11/23 11:27:34;;;;;;;6.53;5.20;;;7.40;62.30;;;;;;5054906;28;20239;-88
2021/11/23 11:30:18;;;;;;;8.57;5.70;;;7.70;62.00;;;;;;5050702;28;20207;-89
2021/11/23 11:32:46;;;;;;;6.53;5.93;;;7.90;60.40;;;;;;5044198;28;20192;-89
2021/11/23 11:35:28;;;;;;;6.40;5.80;;;8.00;60.50;;;;;;5061423;28;20286;-89
2021/11/23 11:37:57;;;;;;;5.73;5.00;;;8.20;60.30;;;;;;5071709;28;20197;-89
2021/11/23 11:40:25;;;;;;;5.80;5.30;;;8.20;60.40;;;;;;5025226;28;20216;-89
2021/11/23 11:42:57;;;;;;;6.93;5.17;;;8.30;59.60;;;;;;5056766;28;20203;-88
2021/11/23 11:45:26;;;;;;;11.10;6.00;;;8.20;59.10;;;;;;5036412;28;20167;-89
2021/11/23 11:47:53;;;;;;;5.70;5.17;;;8.30;59.40;;;;;;5053454;28;20215;-88
2021/11/23 11:50:23;;;;;;;5.80;5.20;;;8.50;59.40;;;;;;5055351;28;20371;-88
2021/11/23 11:52:57;;;;;;;8.27;6.63;;;8.50;58.20;;;;;;5055151;28;20187;-88
2021/11/23 11:55:25;;;;;;;5.33;4.83;;;8.50;58.80;;;;;;5057437;28;20730;-88
2021/11/23 11:57:57;;;;;;;4.93;4.53;;;8.60;57.80;;;;;;5063765;28;20192;-88
2021/11/23 12:00:23;;;;;;;6.97;5.40;;;8.90;57.60;;;;;;5060689;28;20204;-88
2021/11/23 12:02:51;;;;;;;5.40;4.90;;;9.10;57.10;;;;;;5064866;28;20184;-88
2021/11/23 12:05:18;;;;;;;5.10;4.70;;;9.30;56.80;;;;;;5044661;28;20258;-88
2021/11/23 12:07:45;;;;;;;6.23;4.93;;;9.40;54.50;;;;;;5053624;28;20247;-88
2021/11/23 12:10:28;;;;;;;4.87;4.47;;;9.50;55.30;;;;;;5057540;28;20193;-89
2021/11/23 12:12:56;;;;;;;4.90;4.50;;;9.80;55.20;;;;;;5056981;28;20235;-88
2021/11/23 12:15:49;;;;;;;4.20;3.90;;;9.60;53.60;;;;;;5042765;28;20193;-88
2021/11/23 12:18:42;;;;;;;4.17;3.80;;;9.50;52.80;;;;;;5054126;28;20187;-89
2021/11/23 12:21:14;;;;;;;4.57;4.17;;;9.20;54.60;;;;;;5070384;28;20204;-88
2021/11/23 12:24:12;;;;;;;5.07;4.20;;;9.20;54.50;;;;;;5053271;28;20180;-88
2021/11/23 12:26:38;;;;;;;5.20;4.53;;;9.30;54.60;;;;;;5054486;28;20218;-88
2021/11/23 12:29:14;;;;;;;5.00;4.57;;;9.30;53.60;;;;;;5054829;28;20528;-89
2021/11/23 12:31:53;;;;;;;4.70;4.30;;;9.30;52.80;;;;;;5053317;28;20715;-89
2021/11/23 12:34:19;;;;;;;5.80;5.30;;;9.50;52.80;;;;;;5060546;28;20516;-89
2021/11/23 12:36:48;;;;;;;8.23;7.07;;;9.50;51.70;;;;;;5055270;28;20192;-88
2021/11/23 12:39:17;;;;;;;7.53;6.80;;;9.40;52.30;;;;;;5055894;28;20219;-88
2021/11/23 12:41:45;;;;;;;4.87;3.80;;;9.50;52.00;;;;;;5053456;28;20192;-89
2021/11/23 12:44:20;;;;;;;4.73;4.33;;;9.30;52.20;;;;;;5057119;28;20184;-89
2021/11/23 12:46:59;;;;;;;5.17;4.10;;;9.20;53.20;;;;;;5056052;28;20195;-89
2021/11/23 12:49:27;;;;;;;4.30;3.90;;;9.40;52.40;;;;;;5059280;28;20275;-89
2021/11/23 12:51:59;;;;;;;4.30;3.90;;;9.40;51.80;;;;;;5061127;28;20208;-89
2021/11/23 12:54:35;;;;;;;4.03;3.67;;;9.20;52.10;;;;;;5059154;28;20530;-89
2021/11/23 12:57:06;;;;;;;3.67;3.37;;;9.20;52.10;;;;;;5057135;28;20239;-88
2021/11/23 12:59:42;;;;;;;4.43;3.33;;;9.10;52.30;;;;;;5070205;28;20211;-89
2021/11/23 13:02:31;;;;;;;4.37;3.90;;;9.10;51.90;;;;;;5056580;28;20184;-89
2021/11/23 13:05:06;;;;;;;3.97;3.47;;;8.90;52.10;;;;;;5051155;28;20234;-89